Time;durP1;ratioP1;P1;durP2;ratioP2;P2;SDS_P1;SDS_P2;PMS_P1;PMS_P2;Temp;Humidity;BMP_temperature;BMP_pressure;BME280_temperature;BME280_humidity;BME280_pressure;Samples;Min_cycle;Max_cycle;Signal;HPM_P1;HPM_P2
2024/04/18 00:01:21;;;;;;;6.20;5.10;;;;;;;9.32;86.92;98329.02;108613;1240;61332;-76
2024/04/18 00:03:48;;;;;;;6.20;4.20;;;;;;;9.31;86.31;98328.72;108216;1244;61321;-77
2024/04/18 00:06:15;;;;;;;5.40;4.50;;;;;;;9.33;86.00;98323.85;108393;1241;70132;-76
2024/04/18 00:08:41;;;;;;;5.20;4.50;;;;;;;9.35;85.89;98311.77;108554;1243;61233;-75
2024/04/18 00:11:26;;;;;;;9.20;5.10;;;;;;;9.28;85.78;98302.28;108395;1242;61202;-77
2024/04/18 00:13:53;;;;;;;7.10;4.10;;;;;;;9.22;85.50;98295.48;108484;1237;61326;-73
2024/04/18 00:16:34;;;;;;;5.80;3.60;;;;;;;9.24;85.77;98289.99;108446;1236;74257;-75
2024/04/18 00:19:15;;;;;;;5.90;4.50;;;;;;;9.20;85.58;98287.80;108543;1241;69950;-73
2024/04/18 00:21:58;;;;;;;7.40;4.40;;;;;;;9.12;86.10;98286.14;108539;1241;71257;-74
2024/04/18 00:24:26;;;;;;;4.90;3.90;;;;;;;9.11;86.46;98288.85;108781;1241;61331;-79
2024/04/18 00:26:52;;;;;;;4.90;4.00;;;;;;;9.14;85.90;98289.45;108820;1240;61145;-77
2024/04/18 00:29:19;;;;;;;8.20;5.30;;;;;;;9.12;86.09;98290.58;108657;1240;74548;-76
2024/04/18 00:31:45;;;;;;;5.60;3.90;;;;;;;9.07;86.30;98291.55;108470;1238;68502;-75
2024/04/18 00:34:32;;;;;;;5.40;4.00;;;;;;;9.12;86.91;98288.09;109067;1242;71403;-75
2024/04/18 00:36:59;;;;;;;7.40;3.90;;;;;;;9.20;87.38;98291.80;108864;1240;61295;-73
2024/04/18 00:39:25;;;;;;;5.10;4.10;;;;;;;9.22;87.37;98291.36;108920;1241;61349;-74
2024/04/18 00:42:01;;;;;;;4.70;4.20;;;;;;;9.24;87.32;98295.98;108568;1241;73386;-75
2024/04/18 00:44:30;;;;;;;5.20;4.30;;;;;;;9.34;87.65;98289.35;108435;1242;70367;-76
2024/04/18 00:47:13;;;;;;;4.60;4.10;;;;;;;9.39;87.59;98293.82;108462;1243;72644;-75
2024/04/18 00:50:01;;;;;;;8.10;4.30;;;;;;;9.43;88.03;98298.25;108499;1242;61658;-74
2024/04/18 00:52:38;;;;;;;5.90;4.20;;;;;;;9.52;87.19;98295.48;108449;1241;61214;-76
2024/04/18 00:55:08;;;;;;;6.20;4.30;;;;;;;9.53;87.25;98295.29;109073;1237;74375;-76
2024/04/18 00:57:35;;;;;;;7.60;4.20;;;;;;;9.51;87.30;98294.42;108488;1242;70224;-74
2024/04/18 01:00:05;;;;;;;5.10;3.70;;;;;;;9.56;87.20;98296.27;109011;1240;72229;-75
2024/04/18 01:02:51;;;;;;;5.10;4.20;;;;;;;9.57;87.16;98297.91;108880;1240;61345;-79
2024/04/18 01:05:32;;;;;;;5.80;4.10;;;;;;;9.58;87.60;98301.02;108757;1241;61105;-76
2024/04/18 01:07:59;;;;;;;7.00;4.50;;;;;;;9.63;87.16;98305.81;108319;1244;75285;-76
2024/04/18 01:10:46;;;;;;;6.70;4.70;;;;;;;9.62;87.29;98309.27;108599;1241;69867;-77
2024/04/18 01:13:12;;;;;;;6.40;4.60;;;;;;;9.61;87.21;98308.74;108819;1242;61162;-72
2024/04/18 01:15:58;;;;;;;5.90;4.60;;;;;;;9.69;87.19;98315.88;108581;1241;61638;-75
2024/04/18 01:18:24;;;;;;;7.00;4.90;;;;;;;9.70;87.09;98317.51;108731;1241;61323;-75
2024/04/18 01:21:11;;;;;;;6.90;5.20;;;;;;;9.66;87.34;98315.52;108784;1240;74682;-75
2024/04/18 01:23:38;;;;;;;6.10;4.50;;;;;;;9.70;87.10;98317.64;108644;1241;70218;-75
2024/04/18 01:26:04;;;;;;;7.80;4.90;;;;;;;9.74;86.90;98315.01;108492;1241;72474;-74
2024/04/18 01:28:31;;;;;;;8.60;5.10;;;;;;;9.72;86.99;98310.59;108607;1241;61320;-76
2024/04/18 01:30:58;;;;;;;6.20;4.80;;;;;;;9.68;86.92;98305.83;108538;1241;61325;-76
2024/04/18 01:33:24;;;;;;;5.10;4.70;;;;;;;9.69;86.24;98310.54;108212;1238;75159;-74
2024/04/18 01:35:52;;;;;;;5.90;5.20;;;;;;;9.70;86.45;98309.55;108305;1241;68303;-76
2024/04/18 01:38:19;;;;;;;5.30;4.70;;;;;;;9.63;86.63;98305.98;108351;1244;72359;-75
2024/04/18 01:40:45;;;;;;;7.00;4.90;;;;;;;9.56;86.39;98309.41;108486;1241;61262;-76
2024/04/18 01:43:31;;;;;;;9.20;4.40;;;;;;;9.58;86.24;98312.02;108774;1241;61228;-76
2024/04/18 01:45:57;;;;;;;5.70;4.60;;;;;;;9.58;86.19;98309.95;108385;1242;74526;-76
2024/04/18 01:48:24;;;;;;;7.20;5.00;;;;;;;9.51;86.26;98316.16;108283;1244;61407;-75
2024/04/18 01:51:10;;;;;;;7.10;4.80;;;;;;;9.43;86.00;98322.48;108574;1240;71362;-74
2024/04/18 01:53:37;;;;;;;5.10;4.10;;;;;;;9.45;86.35;98321.27;108713;1237;61281;-75
2024/04/18 01:56:17;;;;;;;6.20;4.50;;;;;;;9.46;85.73;98320.00;108924;1240;61186;-75
2024/04/18 01:58:45;;;;;;;8.20;4.80;;;;;;;9.41;86.14;98310.42;108950;1242;74377;-75
2024/04/18 02:01:12;;;;;;;4.90;4.40;;;;;;;9.36;86.26;98298.88;109040;1241;69383;-75
2024/04/18 02:03:39;;;;;;;8.30;4.80;;;;;;;9.38;86.04;98288.73;108546;1238;72346;-76
2024/04/18 02:06:11;;;;;;;7.10;4.70;;;;;;;9.37;85.59;98287.13;109055;1241;61292;-74
2024/04/18 02:08:48;;;;;;;6.10;4.10;;;;;;;9.27;85.89;98287.40;109105;1244;61282;-75
2024/04/18 02:11:41;;;;;;;6.50;5.10;;;;;;;9.19;85.99;98290.09;109030;1241;74580;-77
2024/04/18 02:14:12;;;;;;;6.00;4.20;;;;;;;9.11;85.75;98294.10;108734;1236;70279;-76
2024/04/18 02:16:38;;;;;;;4.20;3.80;;;;;;;9.11;85.46;98291.13;108470;1238;71254;-73
2024/04/18 02:19:24;;;;;;;4.30;3.30;;;;;;;9.10;85.47;98288.86;108589;1239;61256;-74
2024/04/18 02:21:56;;;;;;;4.90;4.40;;;;;;;9.02;85.78;98288.51;108350;1238;61306;-74
2024/04/18 02:24:37;;;;;;;6.60;4.30;;;;;;;8.92;86.08;98284.58;108717;1238;74653;-74
2024/04/18 02:27:04;;;;;;;5.60;4.40;;;;;;;8.85;86.15;98284.96;108758;1238;70278;-75
2024/04/18 02:29:31;;;;;;;5.20;3.80;;;;;;;8.88;85.77;98285.44;108404;1241;72346;-74
2024/04/18 02:32:00;;;;;;;6.80;3.90;;;;;;;8.91;85.95;98286.03;108624;1239;61413;-73
2024/04/18 02:34:30;;;;;;;9.60;5.30;;;;;;;8.85;85.91;98286.02;108423;1238;61172;-72
2024/04/18 02:36:56;;;;;;;5.10;4.40;;;;;;;8.78;86.07;98288.63;108559;1241;61290;-73
2024/04/18 02:39:23;;;;;;;6.00;4.70;;;;;;;8.72;86.16;98286.71;108454;1238;70557;-74
2024/04/18 02:41:50;;;;;;;8.30;4.10;;;;;;;8.73;85.95;98288.50;108535;1237;61218;-75
2024/04/18 02:44:25;;;;;;;6.80;4.20;;;;;;;8.72;86.10;98289.40;108529;1241;61416;-72
2024/04/18 02:46:52;;;;;;;6.80;4.70;;;;;;;8.66;86.52;98291.02;108339;1241;61227;-73
2024/04/18 02:49:19;;;;;;;5.30;4.80;;;;;;;8.60;86.74;98290.88;108642;1240;74597;-75
2024/04/18 02:51:56;;;;;;;7.30;4.10;;;;;;;8.56;86.85;98289.64;108236;1241;68877;-74
2024/04/18 02:54:41;;;;;;;4.90;4.40;;;;;;;8.62;86.58;98288.20;108730;1241;72442;-75
2024/04/18 02:57:08;;;;;;;6.20;4.30;;;;;;;8.65;86.81;98288.19;108379;1241;61349;-74
2024/04/18 02:59:34;;;;;;;6.00;4.60;;;;;;;8.58;86.75;98282.31;108439;1240;61406;-72
2024/04/18 03:02:21;;;;;;;4.80;4.20;;;;;;;8.50;87.10;98274.52;108716;1237;73845;-73
2024/04/18 03:04:48;;;;;;;5.80;4.00;;;;;;;8.52;87.18;98259.00;108831;1240;70031;-73
2024/04/18 03:07:14;;;;;;;4.80;3.80;;;;;;;8.53;87.13;98258.45;108487;1240;61213;-75
2024/04/18 03:09:47;;;;;;;7.80;4.20;;;;;;;8.48;87.28;98260.88;108392;1241;61442;-72
2024/04/18 03:12:26;;;;;;;5.60;4.60;;;;;;;8.43;87.64;98261.09;108486;1241;61346;-72
2024/04/18 03:15:12;;;;;;;10.60;7.40;;;;;;;8.40;87.77;98257.90;108695;1241;73851;-75
2024/04/18 03:18:01;;;;;;;5.80;4.50;;;;;;;8.45;87.38;98259.44;108672;1241;69096;-75
2024/04/18 03:20:34;;;;;;;6.80;4.80;;;;;;;8.46;87.42;98257.66;108660;1237;72381;-74
2024/04/18 03:23:08;;;;;;;10.50;7.50;;;;;;;8.42;87.51;98266.15;108491;1235;61254;-75
2024/04/18 03:25:55;;;;;;;7.70;5.20;;;;;;;8.34;87.94;98265.34;108656;1236;61129;-76
2024/04/18 03:28:21;;;;;;;7.60;4.70;;;;;;;8.31;87.76;98262.73;108503;1241;74570;-76
2024/04/18 03:30:48;;;;;;;6.80;5.20;;;;;;;8.35;87.70;98263.67;108534;1238;61327;-75
2024/04/18 03:33:14;;;;;;;6.10;4.50;;;;;;;8.37;87.72;98261.06;108661;1240;71461;-74
2024/04/18 03:35:41;;;;;;;4.80;4.30;;;;;;;8.32;88.15;98260.80;108651;1241;61308;-75
2024/04/18 03:38:14;;;;;;;6.30;4.70;;;;;;;8.30;88.87;98267.05;108369;1241;61330;-72
2024/04/18 03:40:41;;;;;;;7.70;4.90;;;;;;;8.29;88.88;98266.52;108492;1241;74067;-72
2024/04/18 03:43:07;;;;;;;6.50;5.00;;;;;;;8.36;88.63;98268.73;108591;1240;69993;-72
2024/04/18 03:45:34;;;;;;;5.40;4.90;;;;;;;8.43;88.42;98265.15;108573;1240;61287;-73
2024/04/18 03:48:19;;;;;;;7.20;5.40;;;;;;;8.40;88.67;98262.11;108319;1238;61354;-76
2024/04/18 03:50:46;;;;;;;6.70;5.80;;;;;;;8.34;88.40;98258.63;108480;1240;61269;-77
2024/04/18 03:53:22;;;;;;;8.50;5.30;;;;;;;8.31;88.61;98258.14;108741;1240;74598;-79
2024/04/18 03:56:08;;;;;;;6.40;4.50;;;;;;;8.35;88.39;98264.61;109007;1239;69948;-73
2024/04/18 03:58:35;;;;;;;5.10;4.60;;;;;;;8.39;88.72;98259.97;108639;1241;71328;-77
2024/04/18 04:01:01;;;;;;;6.60;4.00;;;;;;;8.36;89.05;98253.83;108504;1237;61425;-75
2024/04/18 04:03:28;;;;;;;6.50;4.50;;;;;;;8.30;88.78;98252.92;108375;1238;59939;-74
2024/04/18 04:05:55;;;;;;;7.40;4.10;;;;;;;8.24;88.72;98247.99;108325;1242;72921;-76
2024/04/18 04:08:22;;;;;;;5.60;4.50;;;;;;;8.26;88.82;98247.56;108315;1238;69374;-76
2024/04/18 04:11:08;;;;;;;5.30;4.20;;;;;;;8.31;88.39;98253.54;108513;1238;72470;-73
2024/04/18 04:13:36;;;;;;;9.70;4.50;;;;;;;8.30;89.08;98252.03;108280;1238;61338;-74
2024/04/18 04:16:15;;;;;;;6.60;3.80;;;;;;;8.28;89.66;98249.85;108658;1238;61380;-75
2024/04/18 04:18:43;;;;;;;5.20;4.60;;;;;;;8.28;90.20;98252.46;108314;1244;74250;-74
2024/04/18 04:21:28;;;;;;;6.00;4.30;;;;;;;8.39;90.01;98244.95;108545;1244;70298;-74
2024/04/18 04:23:55;;;;;;;5.30;4.00;;;;;;;8.45;89.92;98248.09;108528;1241;71065;-73
2024/04/18 04:26:42;;;;;;;7.00;4.50;;;;;;;8.46;90.07;98245.94;108402;1241;61363;-74
2024/04/18 04:29:09;;;;;;;6.70;4.30;;;;;;;8.46;90.69;98243.70;108263;1247;61319;-73
2024/04/18 04:31:35;;;;;;;5.70;4.50;;;;;;;8.55;90.74;98238.92;108348;1242;74393;-73
2024/04/18 04:34:02;;;;;;;6.70;4.30;;;;;;;8.65;90.25;98235.89;108342;1241;61202;-74
2024/04/18 04:36:28;;;;;;;5.30;4.70;;;;;;;8.66;90.10;98236.36;108517;1237;72829;-73
2024/04/18 04:38:55;;;;;;;5.00;4.40;;;;;;;8.63;89.91;98234.35;108410;1240;61222;-75
2024/04/18 04:41:33;;;;;;;5.90;4.40;;;;;;;8.64;89.97;98227.42;108509;1238;61246;-74
2024/04/18 04:44:00;;;;;;;5.00;4.20;;;;;;;8.72;89.47;98224.70;108279;1238;61361;-76
2024/04/18 04:46:46;;;;;;;7.00;4.60;;;;;;;8.76;88.99;98228.84;108700;1241;69015;-73
2024/04/18 04:49:17;;;;;;;6.90;5.30;;;;;;;8.72;89.01;98226.91;108871;1237;70816;-73
2024/04/18 04:52:00;;;;;;;9.70;7.10;;;;;;;8.68;88.97;98226.96;108566;1241;61247;-75
2024/04/18 04:54:41;;;;;;;8.70;6.50;;;;;;;8.67;89.04;98227.89;108459;1238;61323;-74
2024/04/18 04:57:08;;;;;;;8.40;6.30;;;;;;;8.73;88.86;98227.65;108369;1237;74455;-76
2024/04/18 04:59:35;;;;;;;10.10;7.30;;;;;;;8.74;89.22;98227.90;108497;1241;68948;-76
2024/04/18 05:02:03;;;;;;;8.10;6.00;;;;;;;8.72;89.55;98226.14;108254;1238;72749;-74
2024/04/18 05:04:49;;;;;;;7.50;5.30;;;;;;;8.69;89.87;98228.03;108327;1244;61768;-76
2024/04/18 05:07:31;;;;;;;5.90;4.60;;;;;;;8.76;89.29;98231.73;108879;1237;61221;-78
2024/04/18 05:10:19;;;;;;;7.40;4.60;;;;;;;8.75;88.80;98228.64;108514;1240;74322;-76
2024/04/18 05:12:45;;;;;;;5.60;5.10;;;;;;;8.70;88.48;98227.21;108509;1238;70163;-74
2024/04/18 05:15:33;;;;;;;5.20;3.70;;;;;;;8.63;88.39;98232.76;108499;1238;72566;-75
2024/04/18 05:18:00;;;;;;;4.20;3.40;;;;;;;8.66;87.92;98227.16;108375;1237;63021;-76
2024/04/18 05:23:19;;;;;;;5.40;4.20;;;;;;;8.68;88.60;98221.95;103614;1285;600033;-75
2024/04/18 05:25:46;;;;;;;7.80;4.30;;;;;;;8.62;88.39;98220.77;105024;1269;60186;-76
2024/04/18 05:28:21;;;;;;;5.80;3.80;;;;;;;8.60;88.88;98221.20;105688;1259;60448;-75
2024/04/18 05:31:01;;;;;;;4.90;3.60;;;;;;;8.66;88.56;98222.05;105666;1260;72526;-76
2024/04/18 05:33:29;;;;;;;5.50;3.70;;;;;;;8.70;88.60;98228.48;106001;1260;70808;-76
2024/04/18 05:35:57;;;;;;;5.80;4.00;;;;;;;8.69;88.39;98233.89;105494;1257;172968;-75
2024/04/18 05:38:25;;;;;;;9.10;4.60;;;;;;;8.62;88.46;98236.00;105715;1257;59829;-73
2024/04/18 05:40:52;;;;;;;5.70;3.90;;;;;;;8.56;88.42;98231.07;106536;1256;59727;-75
2024/04/18 05:43:39;;;;;;;5.60;4.50;;;;;;;8.61;88.18;98230.78;107194;1256;71860;-73
2024/04/18 05:46:07;;;;;;;4.80;3.20;;;;;;;8.66;88.20;98229.06;106306;1257;70445;-73
2024/04/18 05:48:35;;;;;;;6.80;3.70;;;;;;;8.64;88.23;98233.57;106090;1257;74925;-74
2024/04/18 05:51:03;;;;;;;4.20;3.80;;;;;;;8.59;88.65;98230.52;105666;1257;60482;-76
2024/04/18 05:53:30;;;;;;;4.60;3.30;;;;;;;8.56;88.73;98225.73;105706;1257;60312;-75
2024/04/18 05:55:58;;;;;;;5.00;3.40;;;;;;;8.61;88.26;98223.48;105852;1257;73924;-78
2024/04/18 05:58:26;;;;;;;5.20;3.70;;;;;;;8.63;88.26;98219.67;105678;1259;69322;-76
2024/04/18 06:00:53;;;;;;;7.10;4.20;;;;;;;8.59;88.87;98212.31;105672;1260;72738;-76
2024/04/18 06:03:21;;;;;;;4.70;4.30;;;;;;;8.57;89.09;98207.66;105694;1259;60786;-76
2024/04/18 06:05:48;;;;;;;7.90;4.10;;;;;;;8.56;89.66;98210.83;105766;1260;60439;-76
2024/04/18 06:08:15;;;;;;;4.80;4.30;;;;;;;8.61;89.11;98214.20;105747;1257;73281;-74
2024/04/18 06:10:43;;;;;;;5.00;4.40;;;;;;;8.64;89.17;98217.11;105762;1261;69400;-74
2024/04/18 06:13:22;;;;;;;8.70;4.10;;;;;;;8.63;89.86;98225.82;105678;1262;75052;-75
2024/04/18 06:15:49;;;;;;;6.90;4.20;;;;;;;8.58;90.27;98230.63;105628;1257;61079;-74
2024/04/18 06:18:17;;;;;;;4.90;3.70;;;;;;;8.53;90.50;98232.52;105522;1257;60441;-77
2024/04/18 06:20:45;;;;;;;6.40;3.50;;;;;;;8.58;90.23;98238.89;105476;1257;74967;-76
2024/04/18 06:23:13;;;;;;;3.90;3.30;;;;;;;8.65;89.75;98242.98;105581;1258;70568;-77
2024/04/18 06:25:41;;;;;;;4.20;3.40;;;;;;;8.62;89.80;98244.95;105588;1262;71842;-77
2024/04/18 06:28:10;;;;;;;5.00;3.50;;;;;;;8.56;90.07;98247.80;105398;1259;61042;-77
2024/04/18 06:30:40;;;;;;;4.00;3.40;;;;;;;8.52;89.69;98242.84;105582;1264;60528;-77
2024/04/18 06:33:11;;;;;;;8.20;3.50;;;;;;;8.56;89.22;98240.27;105469;1264;75576;-76
2024/04/18 06:35:40;;;;;;;4.70;3.60;;;;;;;8.63;89.34;98241.59;107378;1257;69456;-76
2024/04/18 06:38:08;;;;;;;4.70;3.50;;;;;;;8.65;89.62;98248.11;107990;1260;71952;-77
2024/04/18 06:40:35;;;;;;;8.00;3.80;;;;;;;8.65;89.72;98247.95;106616;1260;61428;-77
2024/04/18 06:43:03;;;;;;;4.70;2.90;;;;;;;8.65;89.37;98244.08;106225;1257;60518;-77
2024/04/18 06:45:30;;;;;;;3.90;3.50;;;;;;;8.71;89.25;98247.58;105713;1257;76056;-76
2024/04/18 06:47:58;;;;;;;5.70;2.80;;;;;;;8.77;89.01;98252.32;105561;1263;71301;-77
2024/04/18 06:50:26;;;;;;;4.40;3.00;;;;;;;8.76;89.04;98252.19;105505;1257;72958;-75
2024/04/18 06:52:53;;;;;;;4.80;3.10;;;;;;;8.72;89.34;98254.94;105618;1258;60502;-77
2024/04/18 06:55:24;;;;;;;4.80;3.40;;;;;;;8.69;89.62;98251.31;105610;1259;60412;-82
2024/04/18 06:57:51;;;;;;;4.40;2.80;;;;;;;8.72;89.12;98245.52;106119;1257;72636;-81
2024/04/18 07:00:19;;;;;;;3.40;3.10;;;;;;;8.69;88.95;98237.23;105908;1257;70711;-78
2024/04/18 07:02:47;;;;;;;4.90;3.30;;;;;;;8.61;89.14;98236.56;105746;1259;71443;-81
2024/04/18 07:05:41;;;;;;;4.10;3.40;;;;;;;8.52;89.71;98232.70;105654;1262;60553;-81
2024/04/18 07:08:21;;;;;;;4.60;3.00;;;;;;;8.49;89.83;98231.77;105709;1260;60515;-79
2024/04/18 07:10:48;;;;;;;4.10;3.20;;;;;;;8.54;89.87;98226.77;105607;1258;72977;-82
2024/04/18 07:13:29;;;;;;;4.70;2.90;;;;;;;8.55;90.06;98229.47;106426;1257;72689;-82
2024/04/18 07:16:03;;;;;;;3.60;3.10;;;;;;;8.52;90.28;98235.50;106230;1260;75209;-83
2024/04/18 07:18:49;;;;;;;6.80;3.30;;;;;;;8.49;89.72;98240.45;108139;1257;62799;-82
2024/04/18 07:21:17;;;;;;;5.00;3.00;;;;;;;8.55;89.61;98242.90;106984;1257;60323;-79
2024/04/18 07:23:45;;;;;;;4.00;2.70;;;;;;;8.60;89.76;98239.55;105755;1257;74022;-81
2024/04/18 07:26:32;;;;;;;3.50;2.80;;;;;;;8.57;89.38;98237.95;105982;1262;71057;-82
2024/04/18 07:29:00;;;;;;;4.20;3.00;;;;;;;8.52;89.06;98236.69;106881;1257;72775;-84
2024/04/18 07:31:27;;;;;;;4.60;2.80;;;;;;;8.50;89.34;98238.38;108677;1257;60588;-81
2024/04/18 07:34:24;;;;;;;5.20;3.10;;;;;;;8.59;89.19;98237.32;107580;1257;59468;-82
2024/04/18 07:36:53;;;;;;;4.90;2.90;;;;;;;8.66;88.59;98237.90;107652;1257;75038;-82
2024/04/18 07:39:20;;;;;;;2.80;2.30;;;;;;;8.63;88.59;98234.58;107574;1258;72287;-81
2024/04/18 07:41:48;;;;;;;6.60;2.70;;;;;;;8.56;88.27;98236.86;105942;1265;74852;-78
2024/04/18 07:44:16;;;;;;;4.50;2.50;;;;;;;8.52;87.71;98240.95;105997;1259;62873;-79
2024/04/18 07:46:47;;;;;;;4.20;2.50;;;;;;;8.53;87.78;98246.48;106094;1260;61177;-77
2024/04/18 07:49:15;;;;;;;3.40;2.50;;;;;;;8.51;87.70;98244.38;107440;1260;73896;-83
2024/04/18 07:51:43;;;;;;;4.80;3.80;;;;;;;8.45;88.15;98241.56;107940;1259;72786;-79
2024/04/18 07:54:10;;;;;;;5.30;2.50;;;;;;;8.44;88.37;98240.09;106575;1260;71261;-82
2024/04/18 07:56:37;;;;;;;3.40;2.60;;;;;;;8.53;88.53;98238.13;105789;1257;61206;-81
2024/04/18 07:59:07;;;;;;;3.40;2.00;;;;;;;8.62;88.44;98239.13;106472;1259;60528;-80
2024/04/18 08:01:36;;;;;;;6.20;4.30;;;;;;;8.61;88.47;98242.90;106487;1258;75679;-81
2024/04/18 08:04:07;;;;;;;3.00;2.70;;;;;;;8.61;88.96;98240.15;105949;1264;70270;-79
2024/04/18 08:06:54;;;;;;;2.00;1.80;;;;;;;8.68;88.31;98240.69;105814;1260;73897;-81
2024/04/18 08:09:25;;;;;;;3.60;2.30;;;;;;;8.69;88.31;98238.84;105645;1257;60475;-80
2024/04/18 08:11:58;;;;;;;3.20;2.30;;;;;;;8.62;88.84;98236.27;106373;1260;60338;-86
2024/04/18 08:14:28;;;;;;;3.40;2.20;;;;;;;8.56;89.30;98232.13;106140;1257;74009;-85
2024/04/18 08:17:02;;;;;;;4.90;2.30;;;;;;;8.57;89.07;98236.21;107505;1257;68859;-84
2024/04/18 08:19:31;;;;;;;3.00;2.10;;;;;;;8.60;89.10;98233.90;107563;1262;71763;-84
2024/04/18 08:22:00;;;;;;;2.40;2.10;;;;;;;8.57;89.07;98235.39;106376;1265;60664;-81
2024/04/18 08:24:33;;;;;;;2.70;2.40;;;;;;;8.51;88.79;98236.23;106966;1257;63739;-84
2024/04/18 08:27:06;;;;;;;3.40;2.40;;;;;;;8.50;88.47;98232.03;108755;1258;74701;-84
2024/04/18 08:29:33;;;;;;;3.20;2.40;;;;;;;8.57;88.39;98228.30;107563;1265;71238;-84
2024/04/18 08:32:01;;;;;;;3.00;2.50;;;;;;;8.65;88.67;98220.61;106717;1259;73613;-83
2024/04/18 08:34:29;;;;;;;3.90;2.40;;;;;;;8.65;88.86;98213.45;106865;1265;60526;-81
2024/04/18 08:37:00;;;;;;;4.00;2.10;;;;;;;8.67;89.23;98209.88;106766;1257;60065;-83
2024/04/18 08:39:28;;;;;;;2.80;2.20;;;;;;;8.72;88.60;98213.88;107031;1259;75894;-83
2024/04/18 08:41:57;;;;;;;5.80;2.90;;;;;;;8.73;88.40;98216.01;107151;1256;70472;-85
2024/04/18 08:44:25;;;;;;;3.70;2.50;;;;;;;8.73;89.01;98219.61;107200;1258;73922;-83
2024/04/18 08:46:52;;;;;;;4.70;2.50;;;;;;;8.75;89.18;98220.60;107178;1256;63504;-81
2024/04/18 08:49:20;;;;;;;5.90;2.70;;;;;;;8.81;88.64;98213.61;108384;1255;59290;-84
2024/04/18 08:51:48;;;;;;;4.60;2.70;;;;;;;8.84;88.58;98204.59;108356;1255;74699;-83
2024/04/18 08:54:16;;;;;;;4.90;2.50;;;;;;;8.84;88.36;98201.73;107564;1256;72488;-83
2024/04/18 08:56:47;;;;;;;2.40;2.00;;;;;;;8.80;87.83;98194.08;108134;1256;73223;-84
2024/04/18 08:59:17;;;;;;;5.60;2.00;;;;;;;8.84;87.24;98191.54;108142;1256;62094;-82
2024/04/18 09:01:44;;;;;;;2.70;2.10;;;;;;;8.84;87.77;98185.31;108695;1254;59120;-88
2024/04/18 09:04:11;;;;;;;5.90;2.40;;;;;;;8.81;87.98;98179.23;107579;1263;74785;-82
2024/04/18 09:06:39;;;;;;;2.60;2.10;;;;;;;8.73;88.28;98186.34;107613;1256;70330;-82
2024/04/18 09:09:13;;;;;;;3.40;2.60;;;;;;;8.73;88.65;98182.15;106643;1256;71905;-80
2024/04/18 09:11:41;;;;;;;3.60;2.30;;;;;;;8.74;87.74;98182.33;106459;1257;61457;-81
2024/04/18 09:14:08;;;;;;;3.90;2.20;;;;;;;8.68;88.34;98169.38;106145;1255;62470;-82
2024/04/18 09:16:37;;;;;;;3.00;2.00;;;;;;;8.61;88.49;98163.71;105875;1261;75851;-78
2024/04/18 09:19:05;;;;;;;3.10;1.90;;;;;;;8.60;88.00;98151.44;105937;1255;70211;-77
2024/04/18 09:21:35;;;;;;;5.20;2.00;;;;;;;8.63;88.24;98146.73;108375;1256;73762;-79
2024/04/18 09:24:05;;;;;;;4.30;2.40;;;;;;;8.59;88.41;98147.64;108243;1256;61350;-77
2024/04/18 09:26:32;;;;;;;2.60;1.70;;;;;;;8.53;88.32;98148.14;106110;1256;61149;-80
2024/04/18 09:29:00;;;;;;;2.50;1.70;;;;;;;8.57;87.85;98144.17;108342;1256;75871;-85
2024/04/18 09:31:28;;;;;;;4.00;2.40;;;;;;;8.62;88.05;98146.13;107454;1255;70009;-85
2024/04/18 09:34:10;;;;;;;3.60;2.00;;;;;;;8.62;88.27;98142.02;107564;1256;73479;-89
2024/04/18 09:36:39;;;;;;;4.10;2.00;;;;;;;8.59;88.07;98140.55;107835;1256;61427;-86
2024/04/18 09:39:13;;;;;;;3.60;2.00;;;;;;;8.63;87.72;98145.46;108590;1255;62363;-88
2024/04/18 09:41:49;;;;;;;3.30;1.90;;;;;;;8.65;87.11;98156.36;107840;1256;73529;-84
2024/04/18 09:44:23;;;;;;;4.00;2.60;;;;;;;8.58;87.83;98146.62;107551;1256;71121;-85
2024/04/18 09:46:55;;;;;;;4.20;2.30;;;;;;;8.54;87.64;98131.99;106830;1257;73698;-87
2024/04/18 09:49:23;;;;;;;5.90;2.50;;;;;;;8.55;87.12;98120.05;107289;1256;62690;-85
2024/04/18 09:51:51;;;;;;;4.70;2.20;;;;;;;8.58;87.20;98117.54;107107;1256;61143;-80
2024/04/18 09:54:19;;;;;;;4.00;2.30;;;;;;;8.50;86.47;98118.67;107424;1261;74046;-84
2024/04/18 09:56:47;;;;;;;3.80;2.00;;;;;;;8.33;86.17;98114.06;107558;1256;69461;-83
2024/04/18 09:59:15;;;;;;;5.60;2.30;;;;;;;8.31;86.77;98108.06;107211;1255;74875;-84
2024/04/18 10:01:43;;;;;;;2.80;2.00;;;;;;;8.34;87.30;98106.61;108103;1255;62728;-87
2024/04/18 10:04:27;;;;;;;5.40;2.40;;;;;;;8.36;88.08;98104.05;108670;1255;61227;-84
2024/04/18 10:06:55;;;;;;;3.50;2.20;;;;;;;8.33;88.42;98101.56;108232;1254;73250;-83
2024/04/18 10:09:25;;;;;;;5.50;2.20;;;;;;;8.32;89.17;98099.24;108740;1255;70122;-87
2024/04/18 10:11:57;;;;;;;3.40;2.20;;;;;;;8.38;89.11;98098.14;108018;1255;72534;-84
2024/04/18 10:14:24;;;;;;;3.60;2.60;;;;;;;8.31;88.41;98094.75;107009;1261;61197;-83
2024/04/18 10:16:51;;;;;;;3.40;1.80;;;;;;;8.22;88.69;98094.01;108800;1254;62945;-87
2024/04/18 10:19:21;;;;;;;3.30;1.80;;;;;;;8.22;88.34;98091.86;108909;1256;75922;-85
2024/04/18 10:21:55;;;;;;;3.40;2.30;;;;;;;8.22;88.04;98090.39;108887;1256;70795;-87
2024/04/18 10:24:43;;;;;;;3.60;2.30;;;;;;;8.13;88.13;98091.30;108643;1256;70946;-86
2024/04/18 10:27:14;;;;;;;5.60;2.40;;;;;;;8.12;88.78;98092.84;108692;1255;62897;-87
2024/04/18 10:29:55;;;;;;;3.50;2.40;;;;;;;8.24;88.70;98091.94;108365;1256;61365;-87
2024/04/18 10:32:28;;;;;;;4.20;2.80;;;;;;;8.29;88.78;98086.23;108365;1255;73369;-84
2024/04/18 10:34:59;;;;;;;3.80;2.70;;;;;;;8.27;89.23;98079.91;108322;1255;71112;-81
2024/04/18 10:37:26;;;;;;;3.10;2.40;;;;;;;8.32;89.34;98079.58;107680;1263;73757;-83
2024/04/18 10:39:56;;;;;;;3.00;2.30;;;;;;;8.39;88.97;98079.50;107584;1256;61214;-84
2024/04/18 10:42:25;;;;;;;3.70;2.50;;;;;;;8.30;88.84;98082.08;108360;1260;61162;-84
2024/04/18 10:44:53;;;;;;;4.50;2.60;;;;;;;8.21;89.37;98086.48;107875;1259;73670;-83
2024/04/18 10:47:21;;;;;;;3.10;2.30;;;;;;;8.23;89.86;98084.62;106995;1257;70459;-80
2024/04/18 10:49:49;;;;;;;3.00;2.70;;;;;;;8.24;90.22;98087.71;105903;1262;73814;-84
2024/04/18 10:52:17;;;;;;;7.20;2.90;;;;;;;8.21;91.16;98083.14;106357;1265;61245;-84
2024/04/18 10:54:46;;;;;;;4.90;3.70;;;;;;;8.20;92.11;98075.85;106407;1257;62978;-84
2024/04/18 10:57:14;;;;;;;4.20;3.40;;;;;;;8.23;92.23;98070.16;106471;1256;75589;-80
2024/04/18 10:59:46;;;;;;;7.90;3.50;;;;;;;8.22;92.76;98064.02;106019;1262;69269;-80
2024/04/18 11:02:15;;;;;;;4.00;3.30;;;;;;;8.09;93.57;98062.77;106113;1260;73120;-82
2024/04/18 11:04:42;;;;;;;3.60;3.20;;;;;;;8.03;94.05;98083.08;105995;1260;61295;-80
2024/04/18 11:07:11;;;;;;;6.60;3.40;;;;;;;8.03;94.81;98104.56;106199;1261;61332;-79
2024/04/18 11:09:40;;;;;;;4.10;3.20;;;;;;;7.99;95.36;98109.14;106212;1257;75642;-80
2024/04/18 11:12:08;;;;;;;5.70;3.60;;;;;;;7.88;96.20;98100.34;107768;1256;71701;-80
2024/04/18 11:14:36;;;;;;;6.80;3.90;;;;;;;7.77;96.76;98089.46;108314;1255;71779;-75
2024/04/18 11:17:04;;;;;;;6.20;4.20;;;;;;;7.79;97.10;98086.07;107845;1256;63623;-81
2024/04/18 11:19:31;;;;;;;4.90;3.40;;;;;;;7.80;97.65;98085.80;106640;1262;60385;-81
2024/04/18 11:22:00;;;;;;;4.50;3.00;;;;;;;7.77;98.59;98086.01;107981;1263;74828;-81
2024/04/18 11:24:28;;;;;;;3.40;2.90;;;;;;;7.75;99.24;98083.77;106122;1257;69110;-80
2024/04/18 11:26:56;;;;;;;7.80;3.80;;;;;;;7.80;99.56;98086.73;105826;1256;72059;-80
2024/04/18 11:29:27;;;;;;;5.30;2.80;;;;;;;7.83;99.93;98080.48;105953;1262;61209;-78
2024/04/18 11:32:08;;;;;;;3.40;2.40;;;;;;;7.82;100.00;98082.92;105935;1258;62163;-79
2024/04/18 11:34:38;;;;;;;4.40;2.90;;;;;;;7.83;100.00;98080.62;106228;1256;77011;-79
2024/04/18 11:37:11;;;;;;;4.40;2.50;;;;;;;7.93;100.00;98077.55;106040;1257;72578;-87
2024/04/18 11:39:40;;;;;;;5.80;3.00;;;;;;;7.94;100.00;98072.20;106531;1261;71868;-80
2024/04/18 11:42:08;;;;;;;3.80;2.80;;;;;;;7.89;100.00;98069.92;105995;1262;61212;-80
2024/04/18 11:44:36;;;;;;;3.90;3.20;;;;;;;7.84;100.00;98067.16;106050;1257;61373;-80
2024/04/18 11:47:03;;;;;;;3.80;2.90;;;;;;;7.86;100.00;98074.13;106055;1255;74833;-80
2024/04/18 11:49:31;;;;;;;4.90;2.60;;;;;;;7.89;100.00;98076.60;105966;1260;71925;-80
2024/04/18 11:51:58;;;;;;;3.00;2.50;;;;;;;7.88;100.00;98081.67;105938;1255;73562;-80
2024/04/18 11:54:26;;;;;;;4.80;3.50;;;;;;;7.84;100.00;98078.71;106181;1256;62725;-78
2024/04/18 11:56:53;;;;;;;5.20;3.00;;;;;;;7.91;100.00;98078.16;105876;1256;61293;-78